Flight Track Log - Related Links

Times and Time Zones

All times are in EDT time to prevent confusion due to time zone crossing. See the SKW7365 flight status page for this flight to view local times or setup timezone preferences in your user account.

Time Position Orientation Groundspeed Altitude Reporting Facility
EDT Latitude Longitude Course Direction KTS MPH feet Rate Location/Type
Mon 10:45:34 PM 44.8667 -93.1167 281° West 212 244 2,900  Level Minneapolis TRACON
Mon 10:46:47 PM 44.9239 -93.0183 51° Northeast 276 318 5,300 2,373 Climbing Minneapolis Center
Mon 10:47:00 PM 44.9576 -93.8199 281° West  Level FlightAware Approximate
Mon 10:47:48 PM 44.9942 -93.0097 North 254 292 8,200  Level Minneapolis Center
Mon 10:48:00 PM 44.9793 -93.9713 281° West  Level FlightAware Approximate
Mon 10:48:49 PM 45.0469 -93.0700 321° Northwest 257 296 10,400  Level Minneapolis Center
Mon 10:49:00 PM 44.9867 -94.1248 281° West  Level FlightAware Approximate
Mon 10:49:50 PM 45.0511 -93.1586 274° West 285 328 11,500  Level Minneapolis Center
Mon 10:50:00 PM 45.0070 -94.2766 281° West  Level FlightAware Approximate
Mon 10:50:51 PM 45.0547 -93.3050 272° West 312 359 13,800  Level Minneapolis Center
Mon 10:51:52 PM 45.0614 -93.4561 274° West 325 374 15,600 1,623 Climbing Minneapolis Center
Mon 10:52:53 PM 45.0653 -93.5906 272° West 344 396 17,100 1,512 Climbing Minneapolis Center
Mon 10:53:55 PM 45.0689 -93.7253 272° West 347 399 18,700 1,463 Climbing Minneapolis Center
Mon 10:54:56 PM 45.0731 -93.8614 273° West 348 400 20,100 1,230 Climbing Minneapolis Center
Mon 10:55:57 PM 45.0764 -93.9978 272° West 350 403 21,200 984 Climbing Minneapolis Center
Mon 10:56:58 PM 45.0803 -94.1389 272° West 359 413 22,100 885 Climbing Minneapolis Center
Mon 10:57:59 PM 45.0833 -94.2819 272° West 365 420 23,000 836 Climbing Minneapolis Center
Mon 10:59:00 PM 45.0878 -94.4275 273° West 372 428 23,800 732 Climbing Minneapolis Center
Mon 11:00:02 PM 45.0994 -94.5722 277° West 374 430 24,500 683 Climbing Minneapolis Center
Mon 11:01:03 PM 45.1153 -94.7269 278° West 378 435 25,200 639 Climbing Minneapolis Center
Mon 11:02:04 PM 45.1314 -94.8750 279° West 381 438 25,800 393 Climbing Minneapolis Center
Mon 11:03:05 PM 45.1511 -95.0558 279° West 387 445 26,000 98 Climbing Minneapolis Center
Mon 11:04:07 PM 45.1661 -95.2114 278° West 399 459 26,000  Level Minneapolis Center
Mon 11:05:08 PM 45.1825 -95.3706 278° West 408 470 26,000  Level Minneapolis Center
Mon 11:06:09 PM 45.1989 -95.5308 278° West 412 474 26,000  Level Minneapolis Center
Mon 11:07:10 PM 45.2153 -95.6917 278° West 415 478 26,000  Level Minneapolis Center
Mon 11:08:11 PM 45.2314 -95.8553 278° West 419 482 26,000  Level Minneapolis Center
Mon 11:09:13 PM 45.2472 -96.0150 278° West 413 475 26,000  Level Minneapolis Center
Mon 11:10:14 PM 45.2619 -96.1733 278° West 407 468 26,000  Level Minneapolis Center
Mon 11:11:15 PM 45.2792 -96.3600 278° West 401 461 26,000  Level Minneapolis Center
Mon 11:12:16 PM 45.2939 -96.5158 278° West 401 461 26,000  Level Minneapolis Center
Mon 11:13:17 PM 45.3075 -96.6697 277° West 397 457 26,000  Level Minneapolis Center
Mon 11:14:19 PM 45.3200 -96.8256 277° West 398 458 26,000 -634 Level Minneapolis Center
Mon 11:15:20 PM 45.3356 -96.9811 278° West 400 460 24,700 -985 Descending Minneapolis Center
Mon 11:16:33 PM 45.3475 -97.1331 276° West 391 450 23,800 -2,060 Descending Minneapolis Center
Mon 11:17:34 PM 45.3636 -97.3119 277° West 386 444 20,100 -3,415 Descending Minneapolis Center
Mon 11:18:36 PM 45.3753 -97.4631 276° West 387 445 16,800 -3,073 Descending Minneapolis Center
Mon 11:19:37 PM 45.3856 -97.6000 276° West 357 411 13,800 -2,656 Descending Minneapolis Center
Mon 11:20:38 PM 45.3986 -97.7494 277° West 323 372 11,400 -1,770 Descending Minneapolis Center
Mon 11:21:39 PM 45.4008 -97.8350 272° West 288 331 10,200 -1,463 Descending Minneapolis Center
Mon 11:22:41 PM 45.3958 -97.9567 267° West 263 303 8,400 -1,610 Descending Minneapolis Center
Mon 11:23:42 PM 45.3956 -98.0492 270° West 245 282 6,900 -1,475 Descending Minneapolis Center
Mon 11:24:43 PM 45.3972 -98.1425 271° West 233 268 5,400 -1,230 Descending Minneapolis Center
Mon 11:25:44 PM 45.3964 -98.2267 269° West 224 258 4,400 -1,033 Descending Minneapolis Center
Mon 11:26:45 PM 45.3953 -98.3006 269° West 207 238 3,300 -1,033 Descending Minneapolis Center
Mon 11:27:46 PM 45.4058 -98.3539 286° West 171 197 2,300 -787 Descending Minneapolis Center
Mon 11:28:47 PM 45.4303 -98.3917 313° West 143 165 1,700 -393 Descending Minneapolis Center
Mon 11:29:48 PM 45.4536 -98.4286 312° West 141 162 1,500 -197 Descending Minneapolis Center

Login

Don't have an account? Register now (free) for customized features, flight alerts, and more!